Terminal Aerodrome Forecast
Issued by NWS Memphis, TN

Home | Current Version | Previous Version | Text Only | Print | Product List | Glossary On
Versions: 1 2 3 4 5 6 7 8 9 10 11 12 13 14
723
FTUS44 KMEG 230528
TAFJBR
TAF
KJBR 230528Z 2306/2406 06010KT P6SM BKN060 BKN090
     FM230900 09006KT P6SM SCT040 OVC070
     FM231900 17009KT P6SM BKN100
     FM232200 16009KT P6SM FEW250
     FM240000 14008KT P6SM BKN250=

USA.gov is the U.S. government's official web portal to all federal, state and local government web resources and services.